Terminal Aerodrome Forecast
Issued by NWS Des Moines, IA

Home | Current Version | Previous Version | Text Only | Print | Product List | Glossary On
Versions: 1 2 3 4 5 6 7 8 9 10 11 12 13 14 15 16 17 18 19 20 21 22 23 24 25 26 27 28 29 30 31 32
000
FTUS43 KDMX 272333
TAFDSM
TAF
KDSM 272333Z 2800/2824 10005KT P6SM SCT015 BKN150
     FM280700 12008KT 5SM BR VCSH SCT015 OVC035
     FM281100 14010KT 3SM -TSRA BR SCT007 OVC012CB
     FM281600 18010KT 6SM BR VCSH SCT015 OVC035=

USA.gov is the U.S. government's official web portal to all federal, state and local government web resources and services.